Latest Weather Observations for Low Isles

IDQ60801

Issued at 7:31 am EST Wednesday 1 June 2016 (issued every 30 minutes, with the page automatically refreshed every 10 minutes)

About weather observations | Map of weather stations | Latest weather observations for QLD | Other Formats
Station Details ID: 031037 Name: LOW ISLES LIGHTHOUSE Lat: -16.38 Lon: 145.56 Height: 2.9 m
Data from the previous 72 hours. | See also: Recent months at Low Isles
Date/Time
EST
Temp
°C
App
Temp
°C
Dew
Point
Rel
Hum
%
Delta-T
°C
Wind Press
QNH
hPa
Press
MSL
hPa
Rain
since 9 am
mm
Dir
 
Spd
km/h
Gust
km/h
Spd
kts
Gust
kts
01/07:30am 25.6 24.2 20.4 73 3.4 ESE 28 33 15 18 1016.7 - 0.0
01/07:00am 25.6 24.1 20.2 72 3.5 ESE 28 35 15 19 1016.5 - 0.0
01/06:30am 25.6 24.4 20.8 75 3.2 ESE 28 35 15 19 1016.1 - 0.0
01/06:00am 25.6 24.4 20.8 75 3.1 SE 28 35 15 19 1015.8 1015.7 0.0
01/05:30am 25.6 23.9 20.6 74 3.3 ESE 30 35 16 19 1015.4 - 0.0
01/05:00am 25.5 24.4 21.0 76 3.0 ESE 28 33 15 18 1015.3 - 0.0
01/04:30am 25.5 24.2 20.7 75 3.1 SE 28 35 15 19 1015.3 - 0.0
01/04:00am 25.4 24.0 20.4 74 3.3 ESE 28 35 15 19 1015.2 - 0.0
01/03:30am 25.4 24.1 20.6 75 3.1 ESE 28 37 15 20 1015.2 - 0.0
01/03:00am 25.4 23.9 20.9 76 3.0 ESE 30 37 16 20 1015.5 1015.4 0.0
01/02:30am 25.4 24.3 21.1 77 2.8 SE 28 39 15 21 1015.6 - 0.0
01/02:00am 25.6 23.8 21.1 76 3.0 SE 32 39 17 21 1016.1 - 0.0
01/01:30am 25.6 24.0 20.8 75 3.2 ESE 30 43 16 23 1016.4 - 0.0
01/01:00am 25.6 24.0 20.8 75 3.2 ESE 30 37 16 20 1016.7 - 0.0
01/12:30am 25.7 24.3 21.1 76 3.0 ESE 30 41 16 22 1016.9 - 0.0
01/12:00am 25.7 23.4 20.5 73 3.4 ESE 33 43 18 23 1016.9 1016.8 0.0
 
Date/Time
EST
Temp
°C
App
Temp
°C
Dew
Point
Rel
Hum
%
Delta-T
°C
Wind Press
QNH
hPa
Press
MSL
hPa
Rain
since 9 am
mm
Dir
 
Spd
km/h
Gust
km/h
Spd
kts
Gust
kts
31/11:30pm 25.7 23.7 21.1 76 3.0 SE 33 44 18 24 1017.3 - 0.0
31/11:00pm 25.7 23.1 20.7 74 3.3 ESE 35 43 19 23 1017.5 - 0.0
31/10:30pm 25.8 23.2 20.6 73 3.4 ESE 35 43 19 23 1017.7 - 0.0
31/10:00pm 25.9 23.1 21.1 75 3.2 ESE 37 48 20 26 1017.8 - 0.0
31/09:30pm 25.9 22.7 20.2 71 3.7 ESE 37 48 20 26 1017.8 - 0.0
31/09:00pm 26.0 22.4 21.0 74 3.3 ESE 41 50 22 27 1017.7 1017.6 0.0
31/08:30pm 26.0 23.9 21.7 77 2.9 ESE 35 46 19 25 1017.3 - 0.0
31/08:00pm 26.0 23.7 21.2 75 3.2 ESE 35 46 19 25 1017.2 - 0.0
31/07:30pm 26.0 23.7 21.2 75 3.2 ESE 35 44 19 24 1016.9 - 0.0
31/07:00pm 26.0 23.9 21.0 74 3.3 ESE 33 43 18 23 1016.6 - 0.0
31/06:30pm 26.1 24.3 21.5 76 3.1 ESE 33 43 18 23 1016.4 - 0.0
31/06:00pm 26.2 24.4 21.6 76 3.1 ESE 33 43 18 23 1016.2 1016.1 0.0
31/05:30pm 26.3 24.1 21.5 75 3.2 ESE 35 41 19 22 1016.1 - 0.0
31/05:00pm 26.5 24.4 21.7 75 3.2 ESE 35 44 19 24 1016.0 - 0.0
31/04:30pm 26.9 24.8 21.6 72 3.5 ESE 35 44 19 24 1015.7 - 0.0
31/04:00pm 26.7 24.7 21.9 75 3.2 ESE 35 41 19 22 1015.5 - 0.0
31/03:30pm 26.9 24.8 21.6 72 3.5 ESE 35 46 19 25 1015.4 - 0.0
31/03:00pm 28.0 26.6 22.2 70 3.9 ESE 33 43 18 23 1015.4 1015.3 0.0
31/02:30pm 27.8 26.1 22.5 73 3.6 ESE 35 43 19 23 1015.7 - 0.0
31/02:00pm 27.5 26.4 22.9 76 3.1 ESE 33 43 18 23 1015.8 - 0.0
31/01:30pm 27.5 25.8 23.1 77 3.0 ESE 37 46 20 25 1016.0 - 0.0
31/01:00pm 27.6 26.8 23.0 76 3.1 ESE 32 43 17 23 1016.5 - 0.0
31/12:30pm 27.6 26.1 22.8 75 3.3 ESE 35 44 19 24 1017.0 - 0.0
31/12:00pm 27.4 26.4 23.0 77 3.0 ESE 33 43 18 23 1017.4 1017.3 0.0
31/11:30am 27.1 25.6 22.7 77 3.0 ESE 35 46 19 25 1017.8 - 0.0
31/11:00am 26.9 25.5 22.9 79 2.7 ESE 35 44 19 24 1017.9 - 0.0
31/10:30am 26.7 25.6 23.4 82 2.3 ESE 35 44 19 24 1018.1 - 0.0
31/10:00am 26.2 25.4 23.1 83 2.1 ESE 32 44 17 24 1018.1 - 0.0
31/09:30am 25.9 24.8 23.4 86 1.7 ESE 35 43 19 23 1018.1 - 0.0
31/09:00am 25.0 23.5 22.7 87 1.5 ESE 35 43 19 23 1018.1 1018.0 1.4
31/08:47am 25.0 25.2 23.4 91 1.1 ESE 28 39 15 21 1017.9 - 1.4
31/08:30am 24.2 25.9 21.7 86 1.7 NE 15 20 8 11 1018.0 - 1.0
31/08:08am 26.4 26.2 22.7 80 2.5 E 28 35 15 19 1017.7 - 0.0
31/08:00am 26.5 24.5 22.6 79 2.6 ESE 37 46 20 25 1017.4 - 0.0
31/07:30am 26.5 25.7 23.0 81 2.4 ESE 32 41 17 22 1017.0 - 0.0
31/07:00am 26.4 25.1 22.5 79 2.6 ESE 33 41 18 22 1016.8 - 0.0
31/06:30am 26.5 25.5 23.0 81 2.4 ESE 33 41 18 22 1016.5 - 0.0
31/06:00am 26.4 25.1 22.5 79 2.6 ESE 33 41 18 22 1016.3 1016.2 0.0
31/05:30am 26.4 24.9 22.7 80 2.5 ESE 35 44 19 24 1016.0 - 0.0
31/05:00am 26.4 25.5 22.9 81 2.4 SE 32 41 17 22 1015.8 - 0.0
31/04:30am 26.3 24.7 22.6 80 2.5 ESE 35 41 19 22 1015.8 - 0.0
31/04:00am 26.4 25.0 22.9 81 2.4 SE 35 46 19 25 1015.6 - 0.0
31/03:30am 26.4 25.0 22.9 81 2.4 ESE 35 43 19 23 1015.9 - 0.0
31/03:00am 26.4 25.5 22.9 81 2.4 ESE 32 39 17 21 1015.9 1015.8 0.0
31/02:30am 26.3 25.5 23.0 82 2.2 ESE 32 39 17 21 1016.1 - 0.0
31/02:00am 26.3 25.5 23.0 82 2.2 ESE 32 41 17 22 1016.2 - 0.0
31/01:30am 26.2 25.7 22.9 82 2.2 ESE 30 37 16 20 1016.5 - 0.0
31/01:00am 26.1 25.1 22.6 81 2.4 ESE 32 41 17 22 1016.7 - 0.0
31/12:30am 26.0 25.9 22.9 83 2.1 ESE 28 39 15 21 1016.9 - 0.0
31/12:00am 25.8 26.6 23.1 85 1.8 SSE 24 28 13 15 1017.1 1017.0 0.0
 
Date/Time
EST
Temp
°C
App
Temp
°C
Dew
Point
Rel
Hum
%
Delta-T
°C
Wind Press
QNH
hPa
Press
MSL
hPa
Rain
since 9 am
mm
Dir
 
Spd
km/h
Gust
km/h
Spd
kts
Gust
kts
30/11:30pm 25.7 24.8 22.8 84 2.0 SSE 32 33 17 18 1017.3 - 0.0
30/11:00pm 25.7 25.2 22.8 84 2.0 SE 30 35 16 19 1017.4 - 0.0
30/10:30pm 25.7 24.9 22.4 82 2.2 SE 30 35 16 19 1017.4 - 0.0
30/10:00pm 25.8 24.8 22.7 83 2.1 SE 32 39 17 21 1017.5 - 0.0
30/09:30pm 25.9 23.4 22.4 81 2.4 SSE 39 44 21 24 1017.6 - 0.0
30/09:00pm 25.9 25.0 22.8 83 2.1 SE 32 39 17 21 1017.5 1017.4 0.0
30/08:30pm 25.8 23.3 22.3 81 2.3 SE 39 44 21 24 1017.4 - 0.0
30/08:00pm 26.2 24.7 23.5 85 1.8 SSE 37 41 20 22 1017.2 - 0.0
30/07:30pm 26.2 24.6 23.3 84 2.0 SSE 37 43 20 23 1016.8 - 0.0
30/07:00pm 26.1 24.7 23.0 83 2.1 SE 35 41 19 22 1016.4 - 0.0
30/06:30pm 26.2 24.9 23.1 83 2.1 SE 35 41 19 22 1016.3 - 0.0
30/06:00pm 26.2 25.0 22.7 81 2.4 SE 33 41 18 22 1016.1 1016.0 0.0
30/05:30pm 26.4 25.9 22.9 81 2.4 SE 30 35 16 19 1015.9 - 0.0
30/05:00pm 26.6 25.7 22.9 80 2.5 SE 32 37 17 20 1015.6 - 0.0
30/04:30pm 26.8 25.8 22.6 78 2.8 SE 32 35 17 19 1015.3 - 0.0
30/04:00pm 27.4 27.0 23.0 77 3.0 SE 30 33 16 18 1015.4 - 0.0
30/03:30pm 27.5 27.4 22.9 76 3.1 SE 28 33 15 18 1015.3 - 0.0
30/03:00pm 27.6 26.7 22.8 75 3.3 SE 32 35 17 19 1015.3 1015.2 0.0
30/02:30pm 27.8 27.5 22.5 73 3.6 SE 28 32 15 17 1015.5 - 0.0
30/02:00pm 27.8 27.1 22.5 73 3.6 SE 30 33 16 18 1015.7 - 0.0
30/01:30pm 28.0 28.2 23.4 76 3.2 SE 28 32 15 17 1015.9 - 0.0
30/01:00pm 27.9 28.0 23.3 76 3.1 SE 28 32 15 17 1016.2 - 0.0
30/12:30pm 27.8 27.7 23.6 78 2.9 SE 30 35 16 19 1016.8 - 0.0
30/12:00pm 27.6 28.4 23.2 77 3.0 SSE 24 28 13 15 1017.4 1017.3 0.0
30/11:30am 27.4 28.1 23.0 77 3.0 SSE 24 28 13 15 1017.7 - 0.0
30/11:00am 27.5 28.8 23.3 78 2.9 SSE 22 28 12 15 1017.9 - 0.0
30/10:30am 26.9 28.0 23.6 82 2.3 SSE 24 26 13 14 1018.0 - 0.0
30/10:00am 26.4 27.8 23.5 84 2.0 SSE 22 26 12 14 1018.1 - 0.0
30/09:30am 26.2 27.8 23.3 84 2.0 SSE 20 24 11 13 1018.0 - 0.0
30/09:00am 26.0 28.1 23.1 84 2.0 SSE 17 20 9 11 1017.8 1017.7 2.6
30/08:30am 25.9 27.6 23.0 84 2.0 SSE 19 20 10 11 1017.5 - 2.6
30/08:00am 25.6 27.2 22.9 85 1.8 SSE 19 20 10 11 1017.2 - 2.6
30/07:30am 25.6 27.4 23.3 87 1.6 S 19 20 10 11 1016.9 - 2.6
30/07:00am 25.5 27.3 23.2 87 1.6 SSE 19 20 10 11 1016.7 - 2.6
30/06:30am 25.6 27.4 23.3 87 1.6 SSE 19 20 10 11 1016.5 - 2.6
30/06:00am 25.5 27.3 23.2 87 1.6 SE 19 20 10 11 1016.2 1016.1 2.6
30/05:30am 25.6 27.2 22.9 85 1.8 SE 19 20 10 11 1016.1 - 2.6
30/05:00am 25.6 26.6 22.9 85 1.8 SSE 22 24 12 13 1015.9 - 2.6
30/04:30am 25.7 26.4 23.0 85 1.8 SSE 24 26 13 14 1015.7 - 2.6
30/04:00am 25.7 26.8 23.0 85 1.8 SSE 22 24 12 13 1015.6 - 2.6
30/03:30am 25.7 26.9 23.2 86 1.7 SSE 22 26 12 14 1015.7 - 2.6
30/03:00am 25.8 26.8 23.5 87 1.6 SSE 24 28 13 15 1015.6 1015.5 2.6
30/02:30am 25.8 26.9 23.1 85 1.8 SSE 22 26 12 14 1015.8 - 2.6
30/02:00am 25.7 26.5 23.2 86 1.7 SSE 24 28 13 15 1015.9 - 2.6
30/01:30am 25.8 27.3 23.7 88 1.4 SSE 22 26 12 14 1016.0 - 2.6
30/01:00am 25.9 27.3 23.6 87 1.6 SSE 22 24 12 13 1016.1 - 2.6
30/12:30am 25.9 27.9 23.6 87 1.6 SE 19 24 10 13 1016.2 - 2.6
30/12:00am 25.8 27.4 23.3 86 1.7 SE 20 22 11 12 1016.3 1016.2 2.6
 
Date/Time
EST
Temp
°C
App
Temp
°C
Dew
Point
Rel
Hum
%
Delta-T
°C
Wind Press
QNH
hPa
Press
MSL
hPa
Rain
since 9 am
mm
Dir
 
Spd
km/h
Gust
km/h
Spd
kts
Gust
kts
29/11:30pm 26.0 27.1 23.1 84 2.0 SE 22 26 12 14 1016.6 - 2.6
29/11:00pm 26.1 27.4 23.4 85 1.8 SSE 22 28 12 15 1016.7 - 2.6
29/10:30pm 26.3 28.1 24.2 88 1.4 SSE 22 26 12 14 1016.7 - 2.6
29/10:00pm 25.9 27.7 23.2 85 1.8 SE 19 22 10 12 1016.6 - 2.6
29/09:30pm 25.6 27.6 22.9 85 1.8 ESE 17 20 9 11 1016.6 - 2.6
29/09:00pm 25.8 28.3 23.1 85 1.8 ESE 15 19 8 10 1016.5 1016.4 2.6
29/08:30pm 26.1 28.8 23.4 85 1.8 ESE 15 20 8 11 1016.2 - 2.6
29/08:00pm 26.5 27.9 24.2 87 1.6 SE 24 26 13 14 1015.9 - 2.6
29/07:30pm 26.2 28.0 23.5 85 1.8 SE 20 24 11 13 1015.6 - 2.6
29/07:00pm 26.4 28.3 23.7 85 1.9 SE 20 26 11 14 1015.3 - 2.6
29/06:30pm 26.3 28.3 23.6 85 1.8 ESE 19 24 10 13 1015.2 - 2.6
29/06:00pm 26.5 28.7 23.2 82 2.2 ESE 17 20 9 11 1015.1 1015.0 2.6
29/05:30pm 26.7 28.3 23.2 81 2.4 ESE 20 22 11 12 1015.0 - 2.6
29/05:00pm 26.9 28.9 22.9 79 2.7 ESE 17 20 9 11 1014.7 - 2.6
29/04:30pm 27.6 29.5 22.8 75 3.3 ESE 17 22 9 12 1014.7 - 2.6
29/04:00pm 28.4 30.5 23.1 73 3.6 ESE 17 22 9 12 1014.4 - 2.6
29/03:30pm 28.8 31.9 23.5 73 3.6 ESE 13 17 7 9 1014.3 - 2.6
29/03:00pm 29.0 31.7 23.4 72 3.8 ESE 15 20 8 11 1014.4 1014.3 2.6
29/02:30pm 29.2 32.2 23.4 71 4.0 SE 13 17 7 9 1014.5 - 2.6
29/02:00pm 28.6 31.3 22.1 68 4.4 SE 11 15 6 8 1014.6 - 2.6
29/01:30pm 28.8 31.7 23.2 71 3.8 SE 13 17 7 9 1014.9 - 2.6
29/01:00pm 27.8 30.6 23.0 75 3.3 SE 13 17 7 9 1015.2 - 2.6
29/12:30pm 28.2 30.8 23.3 75 3.4 SSE 15 17 8 9 1015.4 - 2.6
29/12:00pm 27.9 30.6 23.5 77 3.0 SSE 15 19 8 10 1015.7 1015.6 2.6
29/11:30am 27.6 30.1 23.2 77 3.0 SSE 15 17 8 9 1015.9 - 2.6
29/11:00am 26.9 30.8 23.6 82 2.3 S 9 11 5 6 1016.1 - 2.6
29/10:30am 26.0 29.7 23.3 85 1.8 SSE 9 11 5 6 1016.4 - 2.6
29/10:00am 25.6 28.8 23.1 86 1.7 SSE 11 15 6 8 1016.4 - 2.6
29/09:30am 26.1 31.6 24.0 88 1.4 SE 2 6 1 3 1016.6 - 0.0
29/09:00am 25.3 28.5 23.0 87 1.6 SW 11 13 6 7 1016.5 1016.4 0.0
29/08:30am 25.2 28.1 23.1 88 1.4 SW 13 13 7 7 1016.2 - 0.0
29/08:00am 24.9 27.3 22.2 85 1.8 WSW 13 15 7 8 1015.9 - 0.0

Other Formats:

Comma delimited format used in spreadsheet applications
http://www.bom.gov.au/fwo/IDQ60801/IDQ60801.94285.axf

JavaScript Object Notation format (JSON) in row-major order
http://www.bom.gov.au/fwo/IDQ60801/IDQ60801.94285.json